Hermoso Campo, Argentina
Current Conditions -  °F | °C
As of 5:00 AM on Saturday 01 Nov 2014 (Local Time) from SARE Reporting Station
Thunderstorm Thunderstorm  
Wind Chill: 22°   Ceiling: 800
Heat Index: 22°   Visibility: 3mi
Dew Point: 20°   Wind: 10mph
Humidity: 88%   Direction: 230°SW
Pressure: 29.85"   Gusts: NA
Location:  27.71°S, 61.37°W
Report Text: SARE 010800Z 23009KT 5000 TSRA BKN008 OVC045 FEW056CB 22/20 Q1011
Loading
Personal Weather Stations






























Interactive Weather Map
Tropical Storm Tracking
New forecast layout! Learn more

10-Day Weather Forecast

Advertisements
Track Severe Weather on mobile